createdAt,value
2019-02-07T00:00:47.483Z,59.93
2019-02-07T00:03:19.149Z,59.60
2019-02-07T00:05:50.737Z,59.71
2019-02-07T00:08:22.720Z,60.09
2019-02-07T00:10:54.804Z,59.93
2019-02-07T00:13:26.533Z,59.90
2019-02-07T00:15:58.123Z,60.05
2019-02-07T00:18:30.062Z,60.21
2019-02-07T00:21:02.401Z,59.65
2019-02-07T00:23:34.261Z,60.14
2019-02-07T00:26:06.437Z,59.63
2019-02-07T00:28:38.050Z,59.14
2019-02-07T00:31:09.644Z,59.26
2019-02-07T00:33:41.686Z,59.55
2019-02-07T00:36:13.448Z,59.27
2019-02-07T00:38:45.320Z,59.31
2019-02-07T00:41:16.991Z,59.97
2019-02-07T00:43:48.610Z,59.52
2019-02-07T00:46:20.332Z,59.58
2019-02-07T00:48:52.565Z,59.25
2019-02-07T00:51:24.187Z,59.32
2019-02-07T00:53:55.845Z,59.92
2019-02-07T00:56:27.484Z,59.64
2019-02-07T00:58:59.143Z,59.67
2019-02-07T01:01:30.747Z,59.60
2019-02-07T01:04:02.412Z,59.92
2019-02-07T01:06:34.022Z,59.67
2019-02-07T01:09:08.065Z,59.58
2019-02-07T01:11:39.776Z,59.45
2019-02-07T01:14:11.422Z,59.60
2019-02-07T01:16:43.075Z,59.37
2019-02-07T01:19:14.720Z,59.38
2019-02-07T01:21:46.386Z,59.30
2019-02-07T01:24:18.124Z,59.34
2019-02-07T01:26:49.990Z,59.26
2019-02-07T01:29:21.790Z,59.37
2019-02-07T01:31:53.573Z,59.92
2019-02-07T01:34:25.429Z,59.65
2019-02-07T01:36:57.215Z,59.42
2019-02-07T01:39:30.003Z,59.25
2019-02-07T01:42:01.904Z,59.35
2019-02-07T01:44:33.548Z,59.04
2019-02-07T01:47:05.674Z,59.16
2019-02-07T01:49:37.333Z,59.25
2019-02-07T01:52:08.938Z,59.11
2019-02-07T01:54:40.503Z,59.01
2019-02-07T01:57:12.131Z,58.91
2019-02-07T01:59:44.196Z,58.74
2019-02-07T02:02:15.924Z,58.71
2019-02-07T02:04:47.515Z,58.71
2019-02-07T02:07:19.187Z,58.66
2019-02-07T02:09:50.813Z,58.88
2019-02-07T02:12:22.656Z,59.39
2019-02-07T02:14:54.374Z,59.69
2019-02-07T02:17:26.196Z,59.40
2019-02-07T02:19:57.841Z,59.19
2019-02-07T02:22:29.516Z,59.35
2019-02-07T02:25:01.473Z,59.57
2019-02-07T02:27:33.143Z,59.21
2019-02-07T02:30:12.299Z,58.80
2019-02-07T02:32:44.015Z,58.78
2019-02-07T02:35:15.710Z,59.68
2019-02-07T02:37:47.372Z,59.65
2019-02-07T02:40:19.262Z,59.52
2019-02-07T02:42:50.929Z,59.78
2019-02-07T02:45:37.275Z,60.90
2019-02-07T02:47:59.092Z,60.51
2019-02-07T02:50:30.808Z,60.17
2019-02-07T02:53:02.373Z,59.90
2019-02-07T02:55:35.628Z,59.78
2019-02-07T02:58:07.808Z,59.68
2019-02-07T03:00:44.642Z,59.90
2019-02-07T03:03:19.438Z,60.06
2019-02-07T03:06:00.395Z,59.89
2019-02-07T03:08:36.387Z,60.04
2019-02-07T03:11:14.827Z,59.89
2019-02-07T03:14:03.338Z,60.11
2019-02-07T03:16:36.602Z,60.28
2019-02-07T03:19:26.163Z,60.84
2019-02-07T03:22:03.599Z,61.08
2019-02-07T03:24:37.977Z,61.40
2019-02-07T03:27:27.568Z,60.93
2019-02-07T03:30:17.062Z,60.99
2019-02-07T03:32:56.374Z,60.96
2019-02-07T03:35:30.435Z,60.90
2019-02-07T03:38:12.773Z,61.23
2019-02-07T03:40:50.475Z,61.45
2019-02-07T03:43:40.340Z,61.20
2019-02-07T03:46:28.550Z,61.77
2019-02-07T03:49:01.909Z,61.49
2019-02-07T03:51:37.942Z,61.27
2019-02-07T03:54:14.040Z,61.08
2019-02-07T03:56:59.733Z,61.16
2019-02-07T03:59:49.604Z,61.11
2019-02-07T04:02:40.583Z,61.10
2019-02-07T04:05:29.033Z,60.98
2019-02-07T04:08:02.767Z,60.81
2019-02-07T04:10:37.176Z,61.30
2019-02-07T04:13:10.583Z,61.39
2019-02-07T04:15:44.921Z,61.42
2019-02-07T04:18:34.594Z,61.46
2019-02-07T04:21:06.041Z,61.38
2019-02-07T04:23:39.370Z,61.77
2019-02-07T04:26:18.472Z,61.64
2019-02-07T04:28:57.600Z,61.40
2019-02-07T04:31:30.950Z,61.45
2019-02-07T04:34:20.258Z,61.28
2019-02-07T04:36:56.204Z,61.29
2019-02-07T04:39:47.646Z,61.56
2019-02-07T04:42:33.898Z,61.52
2019-02-07T04:45:24.720Z,61.33
2019-02-07T04:48:07.281Z,61.24
2019-02-07T04:50:49.609Z,61.04
2019-02-07T04:53:32.516Z,61.01
2019-02-07T04:56:14.643Z,61.05
2019-02-07T04:58:50.934Z,61.35
2019-02-07T05:01:34.348Z,61.25
2019-02-07T05:04:13.771Z,61.08
2019-02-07T05:06:45.221Z,61.13
2019-02-07T05:09:24.800Z,61.24
2019-02-07T05:12:14.262Z,61.28
2019-02-07T05:15:05.858Z,61.36
2019-02-07T05:17:45.051Z,61.29
2019-02-07T05:20:34.807Z,61.38
2019-02-07T05:23:26.428Z,61.22
2019-02-07T05:26:15.805Z,61.12
2019-02-07T05:28:49.235Z,61.05
2019-02-07T05:31:25.484Z,60.95
2019-02-07T05:34:16.816Z,61.00
2019-02-07T05:37:00.598Z,61.12
2019-02-07T05:39:52.184Z,61.25
2019-02-07T05:42:37.284Z,61.48
2019-02-07T05:45:30.102Z,61.68
2019-02-07T05:48:09.242Z,61.88
2019-02-07T05:50:42.483Z,61.86
2019-02-07T05:53:28.107Z,62.01
2019-02-07T05:56:01.348Z,62.07
2019-02-07T05:58:50.686Z,62.06
2019-02-07T06:01:39.248Z,62.03
2019-02-07T06:04:17.148Z,62.17
2019-02-07T06:06:51.502Z,62.47
2019-02-07T06:09:24.937Z,62.52
2019-02-07T06:12:08.772Z,62.00
2019-02-07T06:14:58.651Z,62.36
2019-02-07T06:17:44.061Z,62.27
2019-02-07T06:20:30.448Z,61.85
2019-02-07T06:23:12.499Z,61.55
2019-02-07T06:25:44.311Z,61.44
2019-02-07T06:28:20.566Z,61.25
2019-02-07T06:30:57.646Z,61.40
2019-02-07T06:33:31.943Z,61.08
2019-02-07T06:36:21.511Z,60.94
2019-02-07T06:38:54.839Z,61.08
2019-02-07T06:41:28.229Z,61.45
2019-02-07T06:44:04.589Z,61.60
2019-02-07T06:46:53.921Z,61.57
2019-02-07T06:49:43.617Z,61.42
2019-02-07T06:52:33.312Z,61.30
2019-02-07T06:55:11.442Z,61.56
2019-02-07T06:57:44.792Z,61.55
2019-02-07T07:00:26.864Z,61.71
2019-02-07T07:03:00.088Z,61.56
2019-02-07T07:05:39.430Z,61.50
2019-02-07T07:08:21.595Z,61.97
2019-02-07T07:11:08.543Z,61.75
2019-02-07T07:13:54.443Z,61.62
2019-02-07T07:16:31.244Z,61.92
2019-02-07T07:19:04.540Z,61.70
2019-02-07T07:21:57.033Z,61.57
2019-02-07T07:24:42.233Z,61.72
2019-02-07T07:27:24.703Z,61.72
2019-02-07T07:29:57.941Z,61.67
2019-02-07T07:32:43.555Z,61.48
2019-02-07T07:35:28.970Z,62.52
2019-02-07T07:38:14.351Z,61.59
2019-02-07T07:41:02.941Z,60.88
2019-02-07T07:43:42.974Z,60.48
2019-02-07T07:46:32.643Z,60.64
2019-02-07T07:49:05.951Z,60.23
2019-02-07T07:51:57.477Z,60.08
2019-02-07T07:54:31.826Z,59.58
2019-02-07T07:57:07.847Z,59.15
2019-02-07T07:59:59.520Z,58.91
2019-02-07T08:02:44.951Z,58.24
2019-02-07T08:05:30.962Z,57.62
2019-02-07T08:08:04.833Z,57.89
2019-02-07T08:10:54.412Z,57.18
2019-02-07T08:13:30.636Z,57.22
2019-02-07T08:16:11.259Z,57.06
2019-02-07T08:18:50.639Z,57.64
2019-02-07T08:21:40.247Z,57.65
2019-02-07T08:24:13.634Z,57.56
2019-02-07T08:26:52.746Z,57.33
2019-02-07T08:29:26.004Z,57.42
2019-02-07T08:31:57.433Z,57.45
2019-02-07T08:34:46.659Z,58.12
2019-02-07T08:37:35.965Z,57.51
2019-02-07T08:40:22.642Z,56.96
2019-02-07T08:42:58.740Z,56.39
2019-02-07T08:45:32.076Z,56.04
2019-02-07T08:48:05.399Z,56.09
2019-02-07T08:50:39.561Z,56.22
2019-02-07T08:53:19.875Z,56.38
2019-02-07T08:55:53.310Z,55.26
2019-02-07T08:58:42.941Z,55.28
2019-02-07T09:01:16.204Z,55.27
2019-02-07T09:03:49.439Z,55.70
2019-02-07T09:06:34.966Z,55.37
2019-02-07T09:09:16.888Z,55.09
2019-02-07T09:11:50.601Z,55.20
2019-02-07T09:14:29.636Z,55.40
2019-02-07T09:17:06.379Z,55.15
2019-02-07T09:19:45.423Z,54.04
2019-02-07T09:22:27.952Z,54.46
2019-02-07T09:25:02.464Z,54.19
2019-02-07T09:27:42.141Z,54.36
2019-02-07T09:30:28.722Z,53.59
2019-02-07T09:33:04.847Z,53.17
2019-02-07T09:35:47.160Z,53.02
2019-02-07T09:38:27.930Z,52.53
2019-02-07T09:41:01.200Z,52.63
2019-02-07T09:43:49.815Z,52.77
2019-02-07T09:46:39.289Z,52.23
2019-02-07T09:49:17.129Z,51.88
2019-02-07T09:51:59.685Z,51.97
2019-02-07T09:54:31.093Z,51.67
2019-02-07T09:57:07.360Z,51.04
2019-02-07T09:59:57.019Z,50.96
2019-02-07T10:02:37.689Z,51.24
2019-02-07T10:05:13.279Z,50.73
2019-02-07T10:07:55.208Z,50.29
2019-02-07T10:10:34.477Z,50.33
2019-02-07T10:13:24.286Z,50.55
2019-02-07T10:16:14.083Z,49.86
2019-02-07T10:19:05.805Z,49.68
2019-02-07T10:21:40.405Z,49.68
2019-02-07T10:24:17.967Z,50.42
2019-02-07T10:27:05.451Z,49.86
2019-02-07T10:29:42.357Z,49.88
2019-02-07T10:32:16.907Z,50.01
2019-02-07T10:34:53.129Z,49.89
2019-02-07T10:37:28.014Z,49.98
2019-02-07T10:40:11.122Z,49.92
2019-02-07T10:42:45.573Z,50.29
2019-02-07T10:45:29.434Z,49.84
2019-02-07T10:48:20.894Z,49.53
2019-02-07T10:50:57.177Z,49.20
2019-02-07T10:53:39.655Z,48.73
2019-02-07T10:56:29.204Z,48.85
2019-02-07T10:59:02.507Z,48.93
2019-02-07T11:01:42.261Z,49.01
2019-02-07T11:04:21.714Z,48.51
2019-02-07T11:06:53.575Z,48.53
2019-02-07T11:09:36.156Z,48.39
2019-02-07T11:12:07.837Z,47.53
2019-02-07T11:14:47.291Z,47.39
2019-02-07T11:17:27.532Z,47.77
2019-02-07T11:20:06.791Z,48.51
2019-02-07T11:22:40.188Z,48.36
2019-02-07T11:25:14.308Z,48.93
2019-02-07T11:27:47.748Z,48.92
2019-02-07T11:30:21.150Z,49.18
2019-02-07T11:33:12.686Z,48.70
2019-02-07T11:35:52.285Z,48.93
2019-02-07T11:38:41.998Z,48.44
2019-02-07T11:41:16.433Z,48.28
2019-02-07T11:43:56.020Z,47.88
2019-02-07T11:46:37.167Z,48.21
2019-02-07T11:49:10.374Z,48.12
2019-02-07T11:51:47.134Z,48.26
2019-02-07T11:54:20.442Z,48.20
2019-02-07T11:56:54.565Z,48.30
2019-02-07T11:59:44.620Z,47.78
2019-02-07T12:02:24.384Z,47.97
2019-02-07T12:05:06.451Z,48.30
2019-02-07T12:07:42.658Z,48.42
2019-02-07T12:10:14.561Z,48.49
2019-02-07T12:12:54.954Z,49.06
2019-02-07T12:15:37.108Z,48.78
2019-02-07T12:18:16.370Z,48.91
2019-02-07T12:20:49.642Z,48.76
2019-02-07T12:23:24.403Z,48.84
2019-02-07T12:25:58.641Z,48.60
2019-02-07T12:28:36.185Z,48.64
2019-02-07T12:31:15.421Z,48.42
2019-02-07T12:33:48.709Z,48.65
2019-02-07T12:36:27.944Z,48.71
2019-02-07T12:39:07.802Z,48.88
2019-02-07T12:41:51.783Z,48.97
2019-02-07T12:44:36.070Z,48.94
2019-02-07T12:47:25.624Z,49.04
2019-02-07T12:50:15.253Z,49.06
2019-02-07T12:52:58.176Z,49.38
2019-02-07T12:55:52.208Z,49.12
2019-02-07T12:58:28.459Z,48.90
2019-02-07T13:01:04.342Z,48.68
2019-02-07T13:03:51.095Z,48.89
2019-02-07T13:06:40.838Z,48.63
2019-02-07T13:09:26.817Z,48.11
2019-02-07T13:12:05.823Z,47.25
2019-02-07T13:14:39.094Z,46.33
2019-02-07T13:17:24.673Z,47.47
2019-02-07T13:20:01.028Z,46.27
2019-02-07T13:22:33.966Z,45.77
2019-02-07T13:25:10.236Z,46.37
2019-02-07T13:28:00.637Z,45.67
2019-02-07T13:30:46.460Z,45.08
2019-02-07T13:33:24.878Z,45.14
2019-02-07T13:36:14.778Z,45.15
2019-02-07T13:38:50.843Z,45.28
2019-02-07T13:41:40.505Z,45.17
2019-02-07T13:44:19.550Z,46.15
2019-02-07T13:46:50.972Z,45.43
2019-02-07T13:49:25.340Z,45.93
2019-02-07T13:52:02.701Z,45.23
2019-02-07T13:54:34.815Z,44.56
2019-02-07T13:57:13.936Z,44.41
2019-02-07T13:59:56.475Z,44.63
2019-02-07T14:02:29.712Z,44.70
2019-02-07T14:05:04.019Z,44.83
2019-02-07T14:07:53.846Z,45.23
2019-02-07T14:10:25.193Z,45.74
2019-02-07T14:12:58.924Z,46.19
2019-02-07T14:15:30.282Z,46.50
2019-02-07T14:18:19.687Z,46.90
2019-02-07T14:21:01.875Z,47.23
2019-02-07T14:23:51.313Z,47.51
2019-02-07T14:26:36.865Z,47.32
2019-02-07T14:29:28.443Z,47.43
2019-02-07T14:32:01.699Z,47.44
2019-02-07T14:34:36.365Z,47.19
2019-02-07T14:37:12.635Z,47.27
2019-02-07T14:39:55.557Z,47.26
2019-02-07T14:42:40.938Z,47.72
2019-02-07T14:45:24.528Z,47.74
2019-02-07T14:47:56.182Z,47.71
2019-02-07T14:50:27.881Z,47.78
2019-02-07T14:53:02.017Z,47.92
2019-02-07T14:55:32.845Z,48.20
2019-02-07T14:58:04.521Z,48.40
2019-02-07T15:00:36.491Z,48.93
2019-02-07T15:03:08.228Z,48.83
2019-02-07T15:05:39.956Z,48.88
2019-02-07T15:08:11.547Z,48.75
2019-02-07T15:10:43.212Z,49.28
2019-02-07T15:13:14.901Z,49.35
2019-02-07T15:15:47.178Z,49.37
2019-02-07T15:18:18.733Z,49.53
2019-02-07T15:20:50.311Z,49.63
2019-02-07T15:23:21.900Z,49.83
2019-02-07T15:25:53.519Z,50.35
2019-02-07T15:28:25.681Z,50.73
2019-02-07T15:30:57.317Z,50.60
2019-02-07T15:33:28.938Z,50.89
2019-02-07T15:36:00.574Z,50.79
2019-02-07T15:38:32.179Z,50.79
2019-02-07T15:41:04.979Z,50.92
2019-02-07T15:43:36.665Z,51.04
2019-02-07T15:46:09.331Z,50.93
2019-02-07T15:48:40.976Z,51.00
2019-02-07T15:51:13.646Z,50.96
2019-02-07T15:53:45.306Z,51.51
2019-02-07T15:56:16.982Z,51.44
2019-02-07T15:58:56.257Z,51.37
2019-02-07T16:01:35.517Z,51.25
2019-02-07T16:04:08.809Z,51.08
2019-02-07T16:06:40.490Z,51.10
2019-02-07T16:09:12.138Z,50.66
2019-02-07T16:11:43.785Z,50.83
2019-02-07T16:14:15.452Z,51.59
2019-02-07T16:16:47.780Z,51.07
2019-02-07T16:19:19.819Z,50.54
2019-02-07T16:21:51.592Z,50.21
2019-02-07T16:24:23.405Z,49.33
2019-02-07T16:26:55.736Z,49.34
2019-02-07T16:29:28.308Z,49.99
2019-02-07T16:32:01.374Z,49.44
2019-02-07T16:34:34.013Z,49.41
2019-02-07T16:37:06.021Z,49.44
2019-02-07T16:39:37.697Z,48.59
2019-02-07T16:42:09.350Z,48.25
2019-02-07T16:44:41.006Z,47.68
2019-02-07T16:47:12.705Z,46.88
2019-02-07T16:49:44.340Z,47.32
2019-02-07T16:52:16.101Z,46.99
2019-02-07T16:54:48.020Z,47.60
2019-02-07T16:57:19.705Z,47.24
2019-02-07T16:59:51.427Z,46.86
2019-02-07T17:02:23.089Z,47.03
2019-02-07T17:04:54.747Z,47.16
2019-02-07T17:07:26.410Z,47.23
2019-02-07T17:09:58.273Z,47.16
2019-02-07T17:12:30.022Z,47.46
2019-02-07T17:15:01.733Z,47.29
2019-02-07T17:17:33.803Z,47.06
2019-02-07T17:20:14.703Z,47.95
2019-02-07T17:22:47.583Z,47.94
2019-02-07T17:25:19.430Z,48.11
2019-02-07T17:27:51.059Z,47.95
2019-02-07T17:30:23.516Z,48.03
2019-02-07T17:32:55.388Z,47.97
2019-02-07T17:35:27.245Z,47.55
2019-02-07T17:37:58.981Z,47.53
2019-02-07T17:40:30.825Z,47.68
2019-02-07T17:43:02.479Z,47.40
2019-02-07T17:45:34.492Z,47.34
2019-02-07T17:48:06.147Z,47.43
2019-02-07T17:50:41.729Z,47.95
2019-02-07T17:53:14.311Z,47.67
2019-02-07T17:55:46.103Z,47.92
2019-02-07T17:58:17.783Z,48.09
2019-02-07T18:01:01.665Z,48.08
2019-02-07T18:03:34.328Z,48.73
2019-02-07T18:06:06.617Z,48.63
2019-02-07T18:08:38.206Z,48.58
2019-02-07T18:11:09.909Z,48.98
2019-02-07T18:13:41.606Z,48.96
2019-02-07T18:16:13.290Z,48.99
2019-02-07T18:18:45.413Z,49.14
2019-02-07T18:21:17.305Z,49.08
2019-02-07T18:23:48.965Z,49.45
2019-02-07T18:26:20.688Z,49.52
2019-02-07T18:28:53.366Z,49.59
2019-02-07T18:31:24.944Z,49.38
2019-02-07T18:33:56.631Z,49.38
2019-02-07T18:36:28.217Z,49.37
2019-02-07T18:38:59.822Z,49.30
2019-02-07T18:41:31.420Z,49.69
2019-02-07T18:44:03.091Z,49.56
2019-02-07T18:46:34.968Z,49.59
2019-02-07T18:49:06.648Z,49.16
2019-02-07T18:51:45.275Z,49.73
2019-02-07T18:54:11.692Z,49.54
2019-02-07T18:56:43.366Z,49.40
2019-02-07T18:59:15.324Z,49.80
2019-02-07T19:01:46.916Z,49.48
2019-02-07T19:04:18.632Z,49.24
2019-02-07T19:06:50.271Z,49.20
2019-02-07T19:09:21.845Z,48.90
2019-02-07T19:11:53.898Z,49.35
2019-02-07T19:14:25.492Z,49.21
2019-02-07T19:16:57.087Z,49.53
2019-02-07T19:19:28.888Z,49.22
2019-02-07T19:22:00.769Z,49.81
2019-02-07T19:24:32.846Z,49.57
2019-02-07T19:27:04.452Z,50.05
2019-02-07T19:29:36.027Z,50.35
2019-02-07T19:32:07.607Z,50.69
2019-02-07T19:34:39.199Z,51.66
2019-02-07T19:37:12.245Z,51.50
2019-02-07T19:39:43.822Z,51.94
2019-02-07T19:42:15.496Z,52.30
2019-02-07T19:44:47.213Z,52.64
2019-02-07T19:47:18.891Z,53.96
2019-02-07T19:49:51.237Z,54.35
2019-02-07T19:52:22.863Z,54.67
2019-02-07T19:54:54.719Z,55.62
2019-02-07T19:57:26.407Z,56.32
2019-02-07T19:59:57.996Z,56.86
2019-02-07T20:02:29.594Z,57.31
2019-02-07T20:05:01.524Z,57.23
2019-02-07T20:07:33.202Z,56.90
2019-02-07T20:10:16.745Z,57.86
2019-02-07T20:12:48.473Z,58.85
2019-02-07T20:15:35.757Z,59.47
2019-02-07T20:18:09.347Z,60.34
2019-02-07T20:20:41.557Z,60.90
2019-02-07T20:23:13.793Z,61.53
2019-02-07T20:25:45.686Z,62.09
2019-02-07T20:28:17.522Z,61.76
2019-02-07T20:33:20.833Z,63.54
2019-02-07T20:35:53.102Z,64.00
2019-02-07T20:38:24.960Z,63.95
2019-02-07T20:40:56.630Z,64.25
2019-02-07T20:43:28.313Z,64.82
2019-02-07T20:45:59.961Z,64.95
2019-02-07T20:48:31.654Z,65.19
2019-02-07T20:51:03.287Z,66.83
2019-02-07T20:53:35.483Z,66.46
2019-02-07T20:56:07.146Z,66.05
2019-02-07T20:58:38.826Z,66.92
2019-02-07T21:01:10.565Z,67.17
2019-02-07T21:03:42.174Z,67.43
2019-02-07T21:06:14.216Z,67.40
2019-02-07T21:08:46.106Z,67.06
2019-02-07T21:11:17.704Z,66.95
2019-02-07T21:13:49.435Z,67.15
2019-02-07T21:16:21.117Z,66.96
2019-02-07T21:18:52.720Z,67.06
2019-02-07T21:21:24.500Z,67.29
2019-02-07T21:23:57.716Z,67.27
2019-02-07T21:26:29.386Z,67.29
2019-02-07T21:29:01.132Z,68.14
2019-02-07T21:31:32.761Z,68.22
2019-02-07T21:34:04.427Z,69.02
2019-02-07T21:36:36.062Z,68.67
2019-02-07T21:39:10.986Z,68.95
2019-02-07T21:41:42.559Z,69.31
2019-02-07T21:44:14.272Z,69.49
2019-02-07T21:46:46.168Z,68.94
2019-02-07T21:49:17.774Z,69.97
2019-02-07T21:51:49.441Z,69.45
2019-02-07T21:54:21.518Z,69.13
2019-02-07T21:56:53.174Z,69.63
2019-02-07T21:59:25.192Z,69.98
2019-02-07T22:01:56.820Z,69.61
2019-02-07T22:04:28.410Z,69.10
2019-02-07T22:07:00.085Z,69.67
2019-02-07T22:09:32.243Z,69.51
2019-02-07T22:12:04.271Z,69.61
2019-02-07T22:14:35.871Z,69.33
2019-02-07T22:17:07.543Z,69.95
2019-02-07T22:19:39.191Z,69.94
2019-02-07T22:22:10.830Z,70.27
2019-02-07T22:24:43.315Z,69.88
2019-02-07T22:27:15.980Z,70.07
2019-02-07T22:29:47.611Z,70.06
2019-02-07T22:32:19.247Z,69.91
2019-02-07T22:34:50.923Z,69.37
2019-02-07T22:37:23.062Z,69.05
2019-02-07T22:39:55.246Z,69.14
2019-02-07T22:42:26.983Z,69.34
2019-02-07T22:44:58.596Z,69.38
2019-02-07T22:47:30.192Z,68.96
2019-02-07T22:50:02.445Z,68.87
2019-02-07T22:52:34.163Z,69.37
2019-02-07T22:55:08.751Z,69.37
2019-02-07T22:57:40.366Z,69.38
2019-02-07T23:00:36.433Z,69.47
2019-02-07T23:03:18.937Z,69.39
2019-02-07T23:05:50.598Z,69.48
2019-02-07T23:08:22.186Z,69.76
2019-02-07T23:10:53.944Z,69.98
2019-02-07T23:13:25.606Z,70.21
2019-02-07T23:15:58.830Z,69.77
2019-02-07T23:18:30.438Z,69.36
2019-02-07T23:21:02.122Z,69.07
2019-02-07T23:23:33.821Z,69.27
2019-02-07T23:26:06.405Z,69.07
2019-02-07T23:28:38.511Z,69.09
2019-02-07T23:31:10.243Z,69.09
2019-02-07T23:33:41.908Z,68.72
2019-02-07T23:36:13.498Z,68.59
2019-02-07T23:38:45.233Z,68.27
2019-02-07T23:41:16.825Z,68.42
2019-02-07T23:43:48.982Z,68.54
2019-02-07T23:46:20.679Z,68.33
2019-02-07T23:48:52.275Z,68.23
2019-02-07T23:51:23.871Z,68.66
2019-02-07T23:53:55.465Z,68.43
2019-02-07T23:56:27.109Z,68.41
2019-02-07T23:58:59.140Z,68.62
